Time;durP1;ratioP1;P1;durP2;ratioP2;P2;SDS_P1;SDS_P2;PMS_P1;PMS_P2;Temp;Humidity;BMP_temperature;BMP_pressure;BME280_temperature;BME280_humidity;BME280_pressure;Samples;Min_cycle;Max_cycle;Signal;HPM_P1;HPM_P2
2022/05/29 00:01:42;;;;;;;6.10;3.37;;;8.50;99.90;;;;;;5055399;28;20181;-87
2022/05/29 00:04:07;;;;;;;4.07;3.00;;;8.40;99.90;;;;;;5060145;28;20166;-86
2022/05/29 00:06:39;;;;;;;4.40;2.77;;;8.40;99.90;;;;;;5072272;28;20285;-87
2022/05/29 00:09:05;;;;;;;6.67;2.80;;;8.30;99.90;;;;;;5055267;28;20173;-87
2022/05/29 00:11:31;;;;;;;7.00;2.90;;;8.40;99.90;;;;;;5055189;28;21072;-87
2022/05/29 00:14:00;;;;;;;5.57;2.73;;;8.30;99.90;;;;;;5055359;28;20412;-87
2022/05/29 00:16:27;;;;;;;11.73;2.83;;;8.40;99.90;;;;;;5055504;28;20201;-86
2022/05/29 00:18:53;;;;;;;5.90;2.67;;;8.40;99.90;;;;;;5057994;28;20596;-87
2022/05/29 00:21:18;;;;;;;5.03;3.10;;;8.40;99.90;;;;;;5055990;28;20332;-87
2022/05/29 00:23:44;;;;;;;6.90;2.93;;;8.30;99.90;;;;;;5054908;28;20316;-87
2022/05/29 00:26:10;;;;;;;3.93;2.60;;;8.30;99.90;;;;;;5055615;28;20296;-87
2022/05/29 00:28:36;;;;;;;3.93;2.77;;;8.30;99.90;;;;;;5055357;28;20651;-86
2022/05/29 00:31:02;;;;;;;7.93;2.33;;;8.20;99.90;;;;;;5055154;28;20184;-87
2022/05/29 00:33:28;;;;;;;5.83;2.70;;;8.20;99.90;;;;;;5056331;28;20260;-87
2022/05/29 00:35:54;;;;;;;3.27;2.63;;;8.20;99.90;;;;;;5056578;28;20217;-87
2022/05/29 00:38:19;;;;;;;6.40;2.77;;;8.20;99.90;;;;;;5056831;28;20224;-87
2022/05/29 00:41:01;;;;;;;2.73;2.07;;;8.20;99.90;;;;;;5055335;28;20178;-87
2022/05/29 00:43:26;;;;;;;4.47;2.40;;;8.10;99.90;;;;;;5055224;28;20235;-87
2022/05/29 00:45:57;;;;;;;5.37;2.10;;;8.10;99.90;;;;;;5055841;28;20957;-87
2022/05/29 00:48:23;;;;;;;3.63;2.17;;;8.10;99.90;;;;;;5056010;28;20223;-87
2022/05/29 00:50:53;;;;;;;4.67;2.50;;;8.10;99.90;;;;;;5055239;28;20828;-87
2022/05/29 00:53:20;;;;;;;3.80;2.60;;;8.10;99.90;;;;;;5055112;28;20177;-87
2022/05/29 00:55:52;;;;;;;4.93;2.23;;;8.10;99.90;;;;;;5072224;28;20442;-87
2022/05/29 00:58:20;;;;;;;4.83;2.40;;;8.10;99.90;;;;;;5054690;28;20418;-87
2022/05/29 01:00:47;;;;;;;5.37;2.60;;;8.10;99.90;;;;;;5054610;28;20543;-87
2022/05/29 01:03:13;;;;;;;5.23;2.63;;;8.10;99.90;;;;;;5054824;28;20185;-87
2022/05/29 01:05:39;;;;;;;2.97;2.43;;;8.10;99.90;;;;;;5058882;28;20224;-86
2022/05/29 01:08:20;;;;;;;4.80;2.67;;;8.10;99.90;;;;;;5055662;28;20192;-87
2022/05/29 01:10:49;;;;;;;6.03;2.50;;;8.10;99.90;;;;;;5054942;28;20185;-87
2022/05/29 01:13:29;;;;;;;4.70;2.10;;;8.10;99.90;;;;;;5054530;28;20463;-87
2022/05/29 01:16:07;;;;;;;4.40;2.80;;;8.10;99.90;;;;;;5074506;28;20450;-87
2022/05/29 01:18:39;;;;;;;6.00;2.63;;;8.10;99.90;;;;;;5078329;28;20409;-86
2022/05/29 01:21:20;;;;;;;4.13;2.40;;;8.00;99.90;;;;;;5076835;28;20432;-87
2022/05/29 01:24:00;;;;;;;3.60;2.10;;;8.00;99.90;;;;;;5077044;28;20423;-87
2022/05/29 01:26:44;;;;;;;3.70;2.30;;;7.90;99.90;;;;;;5058767;28;20534;-87
2022/05/29 01:29:32;;;;;;;4.30;2.40;;;7.90;99.90;;;;;;5054677;28;20175;-87
2022/05/29 01:32:08;;;;;;;3.30;2.00;;;7.90;99.90;;;;;;5053365;28;20459;-86
2022/05/29 01:34:34;;;;;;;3.10;2.50;;;7.80;99.90;;;;;;5056024;28;20411;-87
2022/05/29 01:37:09;;;;;;;3.93;2.40;;;7.80;99.90;;;;;;5056839;28;20593;-87
2022/05/29 01:39:56;;;;;;;3.43;2.30;;;7.70;99.90;;;;;;5058185;28;20215;-87
2022/05/29 01:42:27;;;;;;;4.67;2.40;;;7.70;99.90;;;;;;5058560;28;20478;-87
2022/05/29 01:45:22;;;;;;;6.30;2.43;;;7.60;99.90;;;;;;5058552;28;20400;-87
2022/05/29 01:48:04;;;;;;;5.83;2.53;;;7.50;99.90;;;;;;5060030;28;20507;-87
2022/05/29 01:50:43;;;;;;;3.30;2.53;;;7.50;99.90;;;;;;5065219;28;20154;-87
2022/05/29 01:53:26;;;;;;;4.30;2.30;;;7.40;99.90;;;;;;5064353;28;20196;-87
2022/05/29 01:55:55;;;;;;;4.37;2.30;;;7.40;99.90;;;;;;5056512;28;20442;-87
2022/05/29 01:58:27;;;;;;;3.77;2.40;;;7.30;99.90;;;;;;5056492;28;20408;-87
2022/05/29 02:00:54;;;;;;;4.43;2.50;;;7.20;99.90;;;;;;5056669;28;20542;-87
2022/05/29 02:03:25;;;;;;;3.23;2.60;;;7.10;99.90;;;;;;5056516;28;20440;-87
2022/05/29 02:05:57;;;;;;;4.13;2.33;;;7.10;99.90;;;;;;5057612;28;20428;-87
2022/05/29 02:08:36;;;;;;;4.43;2.20;;;7.10;99.90;;;;;;5056342;28;20415;-86
2022/05/29 02:11:08;;;;;;;3.73;2.90;;;7.10;99.90;;;;;;5058122;28;20401;-87
2022/05/29 02:13:50;;;;;;;3.00;2.47;;;7.10;99.90;;;;;;5057347;28;20412;-86
2022/05/29 02:16:20;;;;;;;2.80;2.30;;;7.10;99.90;;;;;;5056198;28;20439;-86
2022/05/29 02:18:58;;;;;;;4.53;2.97;;;7.10;99.90;;;;;;5073039;28;20408;-87
2022/05/29 02:22:01;;;;;;;4.20;2.70;;;7.10;99.90;;;;;;5056152;28;20408;-86
2022/05/29 02:24:33;;;;;;;6.47;2.70;;;7.10;99.90;;;;;;5050049;28;20424;-86
2022/05/29 02:27:15;;;;;;;4.07;2.77;;;7.10;99.90;;;;;;5057185;28;20423;-86
2022/05/29 02:29:42;;;;;;;3.87;2.90;;;7.00;99.90;;;;;;5055925;28;20790;-87
2022/05/29 02:32:13;;;;;;;4.57;2.60;;;7.00;99.90;;;;;;5055943;28;20482;-86
2022/05/29 02:35:04;;;;;;;5.07;2.77;;;7.00;99.90;;;;;;5055772;28;20412;-87
2022/05/29 02:37:35;;;;;;;4.63;3.27;;;7.00;99.90;;;;;;5072889;28;20432;-86
2022/05/29 02:40:24;;;;;;;2.90;2.53;;;7.00;99.90;;;;;;5057350;28;20404;-86
2022/05/29 02:43:02;;;;;;;5.43;2.77;;;7.00;99.90;;;;;;5056022;28;20405;-87
2022/05/29 02:45:52;;;;;;;4.73;2.77;;;7.00;99.90;;;;;;5056334;28;20420;-86
2022/05/29 02:48:44;;;;;;;4.27;2.40;;;7.00;99.90;;;;;;5055985;28;20423;-87
2022/05/29 02:51:29;;;;;;;4.33;2.93;;;6.90;99.90;;;;;;5072862;28;20403;-87
2022/05/29 02:53:54;;;;;;;3.03;2.80;;;6.90;99.90;;;;;;5055859;28;20491;-86
2022/05/29 02:56:20;;;;;;;2.80;2.60;;;6.80;99.90;;;;;;5055583;28;20472;-87
2022/05/29 02:58:51;;;;;;;3.00;2.30;;;6.80;99.90;;;;;;5055708;28;20231;-86
2022/05/29 03:01:31;;;;;;;3.73;2.70;;;6.80;99.90;;;;;;5055599;28;20190;-86
2022/05/29 03:04:00;;;;;;;2.43;2.23;;;6.70;99.90;;;;;;5055799;28;20498;-86
2022/05/29 03:06:53;;;;;;;3.70;2.80;;;6.70;99.90;;;;;;5057187;28;20474;-86
2022/05/29 03:09:19;;;;;;;3.33;3.03;;;6.70;99.90;;;;;;5056644;28;20835;-87
2022/05/29 03:11:46;;;;;;;4.30;2.80;;;6.70;99.90;;;;;;5056860;28;20459;-86
2022/05/29 03:14:43;;;;;;;4.33;2.73;;;6.70;99.90;;;;;;5058290;28;20184;-86
2022/05/29 03:17:39;;;;;;;4.47;2.60;;;6.60;99.90;;;;;;5056569;28;20432;-86
2022/05/29 03:20:19;;;;;;;3.50;2.60;;;6.60;99.90;;;;;;5055301;28;20564;-86
2022/05/29 03:22:45;;;;;;;7.17;2.50;;;6.60;99.90;;;;;;5055200;28;20749;-87
2022/05/29 03:25:42;;;;;;;4.53;2.67;;;6.60;99.90;;;;;;5055494;28;20415;-86
2022/05/29 03:28:17;;;;;;;2.60;2.40;;;6.50;99.90;;;;;;5055201;28;20423;-87
2022/05/29 03:30:45;;;;;;;4.97;2.57;;;6.50;99.90;;;;;;5055392;28;20416;-86
2022/05/29 03:33:13;;;;;;;3.40;2.87;;;6.40;99.90;;;;;;5055683;28;20542;-86
2022/05/29 03:36:03;;;;;;;8.17;2.50;;;6.40;99.90;;;;;;5055245;28;20417;-86
2022/05/29 03:38:29;;;;;;;3.70;2.87;;;6.40;99.90;;;;;;5055707;28;20420;-86
2022/05/29 03:40:56;;;;;;;2.60;2.20;;;6.30;99.90;;;;;;5056085;28;20427;-86
2022/05/29 03:43:21;;;;;;;7.50;2.87;;;6.10;99.90;;;;;;5084063;28;20489;-86
2022/05/29 03:45:47;;;;;;;3.20;2.60;;;6.10;99.90;;;;;;5066761;28;20444;-86
2022/05/29 03:48:13;;;;;;;5.10;2.70;;;6.10;99.90;;;;;;5056083;28;20185;-86
2022/05/29 03:50:38;;;;;;;2.70;2.30;;;6.10;99.90;;;;;;5055635;28;20216;-86
2022/05/29 03:53:05;;;;;;;4.93;2.97;;;6.20;99.90;;;;;;5055913;28;20244;-86
2022/05/29 03:55:31;;;;;;;3.70;2.43;;;6.30;99.90;;;;;;5056968;28;20635;-86
2022/05/29 03:57:57;;;;;;;4.80;2.80;;;6.30;99.90;;;;;;5055599;28;20467;-86
2022/05/29 04:00:24;;;;;;;6.30;2.53;;;6.30;99.90;;;;;;5055745;28;20212;-88
2022/05/29 04:02:50;;;;;;;5.07;2.70;;;6.40;99.90;;;;;;5055696;28;20185;-86
2022/05/29 04:05:20;;;;;;;4.63;2.80;;;6.40;99.90;;;;;;5055948;28;20779;-86
2022/05/29 04:13:22;;;;;;;3.07;2.50;;;6.20;99.90;;;;;;5056809;28;20490;-86
2022/05/29 04:15:47;;;;;;;6.53;2.50;;;6.20;99.90;;;;;;5055448;28;20853;-86
2022/05/29 04:18:15;;;;;;;3.50;2.63;;;6.20;99.90;;;;;;5055815;28;20416;-86
2022/05/29 04:20:42;;;;;;;3.00;2.70;;;6.10;99.90;;;;;;5055427;28;20216;-87
2022/05/29 04:23:07;;;;;;;3.87;2.70;;;6.30;99.90;;;;;;5055288;28;20420;-86
2022/05/29 04:25:33;;;;;;;4.87;2.67;;;6.40;99.90;;;;;;5055197;28;20427;-86
2022/05/29 04:27:59;;;;;;;4.40;2.80;;;6.40;99.90;;;;;;5055397;28;20185;-86
2022/05/29 04:30:24;;;;;;;6.00;2.43;;;6.40;99.90;;;;;;5055068;28;20207;-86
2022/05/29 04:32:59;;;;;;;5.20;2.67;;;6.40;99.90;;;;;;5055970;28;20201;-86
2022/05/29 04:35:29;;;;;;;3.43;2.63;;;6.50;99.90;;;;;;5055262;28;20246;-86
2022/05/29 04:37:55;;;;;;;4.73;2.63;;;6.60;99.90;;;;;;5057273;28;20753;-86
2022/05/29 04:40:22;;;;;;;5.77;2.70;;;6.70;99.90;;;;;;5075207;28;20396;-86
2022/05/29 04:42:48;;;;;;;3.97;2.80;;;6.70;99.90;;;;;;5077379;28;20212;-86
2022/05/29 04:45:14;;;;;;;4.07;2.47;;;6.90;99.90;;;;;;5093291;28;20424;-87
2022/05/29 04:47:39;;;;;;;4.97;3.30;;;7.00;99.90;;;;;;5063895;28;20440;-86
2022/05/29 04:50:07;;;;;;;3.20;2.50;;;7.10;99.90;;;;;;5057475;28;20178;-87
2022/05/29 04:52:34;;;;;;;4.33;2.97;;;7.20;99.90;;;;;;5069601;28;20219;-87
2022/05/29 04:55:00;;;;;;;3.43;2.63;;;7.40;99.90;;;;;;5059483;28;20644;-86
2022/05/29 04:57:26;;;;;;;4.77;2.60;;;7.50;99.90;;;;;;5055028;28;20236;-86
2022/05/29 04:59:52;;;;;;;3.97;2.20;;;7.70;99.90;;;;;;5054624;28;20189;-86
2022/05/29 05:02:17;;;;;;;3.70;2.70;;;7.80;99.90;;;;;;5055766;28;20190;-86
2022/05/29 05:04:43;;;;;;;4.10;2.27;;;7.90;99.90;;;;;;5055868;28;20182;-86
2022/05/29 05:07:09;;;;;;;4.07;2.23;;;8.10;99.90;;;;;;5054881;28;20205;-86
2022/05/29 05:09:34;;;;;;;5.00;2.67;;;8.20;99.90;;;;;;5057565;28;20204;-87
2022/05/29 05:12:00;;;;;;;5.23;2.70;;;8.30;99.90;;;;;;5059032;28;20241;-87
2022/05/29 05:14:27;;;;;;;3.30;2.50;;;8.30;99.90;;;;;;5058970;28;20547;-86
2022/05/29 05:16:53;;;;;;;3.70;2.33;;;8.40;99.90;;;;;;5058679;28;20202;-86
2022/05/29 05:19:20;;;;;;;5.23;2.40;;;8.50;99.90;;;;;;5058955;28;20654;-86
2022/05/29 05:21:45;;;;;;;5.90;2.80;;;8.50;99.90;;;;;;5058857;28;20182;-86
2022/05/29 05:24:11;;;;;;;6.13;2.70;;;8.60;99.90;;;;;;5059011;28;20182;-86
2022/05/29 05:26:37;;;;;;;5.67;2.77;;;8.60;99.90;;;;;;5059160;28;20213;-86
2022/05/29 05:29:04;;;;;;;6.07;2.60;;;8.70;99.90;;;;;;5058797;28;20186;-86
2022/05/29 05:31:30;;;;;;;3.63;2.60;;;8.70;99.90;;;;;;5058806;28;20232;-86
2022/05/29 05:33:56;;;;;;;3.33;2.03;;;8.80;99.90;;;;;;5059108;28;20184;-86
2022/05/29 05:36:22;;;;;;;4.70;2.63;;;8.80;99.90;;;;;;5059294;28;20206;-86
2022/05/29 05:38:47;;;;;;;8.33;2.30;;;8.80;99.90;;;;;;5059010;28;20182;-86
2022/05/29 05:41:14;;;;;;;2.67;2.20;;;8.80;99.90;;;;;;5058197;28;20214;-87
2022/05/29 05:43:40;;;;;;;4.30;1.97;;;8.80;99.90;;;;;;5065608;28;20176;-86
2022/05/29 05:46:12;;;;;;;5.67;2.37;;;8.90;99.90;;;;;;5058492;28;20202;-87
2022/05/29 05:48:39;;;;;;;3.93;2.63;;;8.80;99.90;;;;;;5073150;28;20245;-87
2022/05/29 05:51:05;;;;;;;4.50;2.90;;;8.90;99.90;;;;;;5076085;28;20182;-87
2022/05/29 05:53:31;;;;;;;5.10;2.30;;;8.90;99.90;;;;;;5090707;28;20162;-87
2022/05/29 05:55:57;;;;;;;6.03;2.60;;;8.90;99.90;;;;;;5057894;28;20269;-87
2022/05/29 05:58:22;;;;;;;6.03;2.53;;;8.90;99.90;;;;;;5057731;28;20206;-87
2022/05/29 06:00:49;;;;;;;5.70;3.80;;;9.00;99.90;;;;;;5057743;28;20174;-87
2022/05/29 06:03:16;;;;;;;5.50;3.17;;;9.00;99.90;;;;;;5058151;28;20209;-87
2022/05/29 06:05:42;;;;;;;4.00;2.50;;;9.00;99.90;;;;;;5057860;28;20182;-87
2022/05/29 06:08:08;;;;;;;5.03;2.70;;;9.00;99.90;;;;;;5058057;28;20597;-87
2022/05/29 06:10:34;;;;;;;3.67;2.30;;;9.20;99.90;;;;;;5057589;28;20643;-86
2022/05/29 06:13:01;;;;;;;3.50;2.60;;;9.30;99.90;;;;;;5057888;28;20296;-87
2022/05/29 06:15:27;;;;;;;4.67;2.90;;;9.40;99.90;;;;;;5057600;28;20260;-86
2022/05/29 06:17:53;;;;;;;5.80;2.93;;;9.60;99.90;;;;;;5058871;28;20201;-86
2022/05/29 06:20:19;;;;;;;4.63;2.37;;;9.70;99.90;;;;;;5057636;28;20235;-87
2022/05/29 06:22:45;;;;;;;7.93;2.80;;;9.90;99.90;;;;;;5057435;28;20181;-86
2022/05/29 06:25:11;;;;;;;4.73;2.67;;;9.90;99.90;;;;;;5057719;28;20192;-86
2022/05/29 06:27:43;;;;;;;6.20;2.67;;;9.90;99.90;;;;;;5057350;28;20208;-86
2022/05/29 06:30:12;;;;;;;2.87;2.17;;;9.90;99.90;;;;;;5057226;28;20170;-87
2022/05/29 06:32:38;;;;;;;4.30;2.27;;;10.00;99.90;;;;;;5057124;28;20205;-86
2022/05/29 06:35:06;;;;;;;4.30;2.60;;;10.00;99.90;;;;;;5057930;28;20532;-86
2022/05/29 06:37:32;;;;;;;7.13;2.40;;;9.90;99.90;;;;;;5057731;28;20666;-86
2022/05/29 06:39:58;;;;;;;3.10;2.40;;;10.00;99.90;;;;;;5057128;28;20187;-86
2022/05/29 06:42:24;;;;;;;3.27;2.37;;;10.10;99.90;;;;;;5073997;28;20187;-87
2022/05/29 06:44:50;;;;;;;5.40;2.57;;;10.20;99.90;;;;;;5056767;28;20647;-86
2022/05/29 06:47:16;;;;;;;4.77;2.73;;;10.30;99.90;;;;;;5056876;28;20205;-86
2022/05/29 06:49:41;;;;;;;5.00;2.63;;;10.30;99.90;;;;;;5056548;28;20596;-86
2022/05/29 06:52:11;;;;;;;4.33;2.70;;;10.40;99.90;;;;;;5057914;28;20224;-86
2022/05/29 06:54:38;;;;;;;5.47;2.70;;;10.50;99.90;;;;;;5056923;28;20177;-86
2022/05/29 06:57:06;;;;;;;3.43;2.20;;;10.60;99.90;;;;;;5056514;28;20203;-86
2022/05/29 07:06:58;;;;;;;3.30;2.60;;;10.80;99.90;;;;;;5056737;28;20189;-85
2022/05/29 07:07:49;;;;;;;3.63;2.37;;;11.10;99.90;;;;;;5058080;28;20670;-87
2022/05/29 07:10:15;;;;;;;3.93;2.53;;;11.00;99.90;;;;;;5055968;28;20216;-86
2022/05/29 07:12:41;;;;;;;4.83;3.00;;;11.00;99.90;;;;;;5057021;28;20233;-86
2022/05/29 07:15:07;;;;;;;7.57;3.03;;;11.10;99.90;;;;;;5057733;28;20260;-86
2022/05/29 07:17:34;;;;;;;3.70;2.20;;;11.20;99.90;;;;;;5057416;28;20189;-86
2022/05/29 07:20:00;;;;;;;5.27;3.13;;;11.20;99.90;;;;;;5056214;28;20187;-87
2022/05/29 07:22:30;;;;;;;6.60;3.20;;;11.20;99.90;;;;;;5056174;28;20268;-86
2022/05/29 07:24:56;;;;;;;6.17;2.67;;;11.40;99.90;;;;;;5056565;28;20636;-87
2022/05/29 07:27:22;;;;;;;8.53;3.03;;;11.60;99.90;;;;;;5057757;28;20204;-86
2022/05/29 07:29:47;;;;;;;3.67;2.60;;;11.80;99.90;;;;;;5056665;28;20272;-86
2022/05/29 07:32:14;;;;;;;3.23;2.40;;;11.80;99.90;;;;;;5058094;28;20211;-87
2022/05/29 07:34:43;;;;;;;4.47;2.50;;;11.90;99.90;;;;;;5057149;28;20173;-86
2022/05/29 07:37:12;;;;;;;4.83;2.67;;;12.00;99.90;;;;;;5057402;28;20670;-86
2022/05/29 07:39:49;;;;;;;7.67;2.90;;;12.20;99.90;;;;;;5057156;28;20189;-86
2022/05/29 07:44:59;;;;;;;3.40;2.80;;;12.50;99.90;;;;;;5058935;28;20181;-86
2022/05/29 07:47:29;;;;;;;3.87;2.60;;;12.60;99.90;;;;;;5057799;28;20206;-86
2022/05/29 07:49:58;;;;;;;4.87;2.40;;;12.80;99.90;;;;;;5065722;28;20184;-86
2022/05/29 07:52:25;;;;;;;3.60;2.27;;;13.10;99.90;;;;;;5079072;28;20196;-85
2022/05/29 07:54:52;;;;;;;2.80;2.50;;;13.10;99.90;;;;;;5077540;28;20268;-85
2022/05/29 07:57:18;;;;;;;3.27;1.90;;;13.10;99.90;;;;;;5067447;28;20194;-86
2022/05/29 07:59:44;;;;;;;4.57;2.27;;;13.30;99.90;;;;;;5055979;28;20257;-86
2022/05/29 08:02:09;;;;;;;3.80;2.30;;;13.30;99.90;;;;;;5055850;28;20215;-86
2022/05/29 08:04:35;;;;;;;5.30;2.37;;;13.50;99.90;;;;;;5056710;28;20201;-86
2022/05/29 08:07:01;;;;;;;2.80;2.10;;;13.40;99.90;;;;;;5072610;28;20245;-86
2022/05/29 08:09:27;;;;;;;5.17;2.60;;;13.60;99.90;;;;;;5076537;28;20185;-86
2022/05/29 08:11:52;;;;;;;4.87;2.20;;;13.90;99.90;;;;;;5076104;28;20233;-86
2022/05/29 08:14:18;;;;;;;3.97;2.33;;;14.10;99.90;;;;;;5076495;28;20178;-86
2022/05/29 08:16:44;;;;;;;3.20;2.10;;;14.00;99.90;;;;;;5075002;28;20197;-86
2022/05/29 08:19:09;;;;;;;5.50;2.30;;;13.90;99.90;;;;;;5055677;28;20185;-86
2022/05/29 08:21:35;;;;;;;3.83;2.20;;;13.80;99.90;;;;;;5057739;28;20169;-85
2022/05/29 08:32:14;;;;;;;3.43;2.30;;;14.50;99.90;;;;;;5057753;28;20228;-87
2022/05/29 08:34:42;;;;;;;3.37;1.97;;;14.60;99.90;;;;;;5055609;28;20178;-87
2022/05/29 08:37:07;;;;;;;5.20;2.10;;;14.90;99.90;;;;;;5055382;28;20193;-87
2022/05/29 08:39:35;;;;;;;4.73;2.20;;;15.20;99.90;;;;;;5055082;28;20323;-86
2022/05/29 08:42:01;;;;;;;1.90;1.70;;;15.40;99.90;;;;;;5056961;28;20178;-85
2022/05/29 08:44:39;;;;;;;2.90;1.77;;;15.50;99.90;;;;;;5057089;28;20201;-85
2022/05/29 08:47:05;;;;;;;5.60;1.97;;;15.60;99.90;;;;;;5056011;28;20197;-86
2022/05/29 08:49:39;;;;;;;1.83;1.63;;;15.60;99.90;;;;;;5054850;28;20636;-86
2022/05/29 08:52:28;;;;;;;4.00;1.83;;;15.60;99.90;;;;;;5055404;28;20236;-85
2022/05/29 08:55:10;;;;;;;2.87;1.77;;;15.30;99.90;;;;;;5050556;28;20568;-86
2022/05/29 08:58:00;;;;;;;2.23;1.77;;;15.00;99.90;;;;;;5056879;28;20202;-86
2022/05/29 09:00:47;;;;;;;2.87;1.60;;;14.80;99.90;;;;;;5072258;28;20680;-86
2022/05/29 09:03:38;;;;;;;6.13;2.60;;;14.60;99.90;;;;;;5072855;28;20190;-86
2022/05/29 09:06:17;;;;;;;2.47;1.57;;;14.20;99.90;;;;;;5056876;28;20547;-85
2022/05/29 09:08:53;;;;;;;3.00;2.23;;;13.90;99.90;;;;;;5055653;28;20206;-85
2022/05/29 09:11:28;;;;;;;6.13;1.73;;;13.70;99.90;;;;;;5055296;28;20190;-85
2022/05/29 09:13:56;;;;;;;3.90;1.70;;;13.60;99.90;;;;;;5055820;28;20184;-85
2022/05/29 09:16:25;;;;;;;3.80;2.00;;;13.40;99.90;;;;;;5055190;28;20199;-85
2022/05/29 09:19:08;;;;;;;4.10;2.20;;;13.20;99.90;;;;;;5056411;28;20186;-85
2022/05/29 09:22:15;;;;;;;6.53;1.73;;;13.00;99.90;;;;;;5058216;28;20684;-85
2022/05/29 09:25:01;;;;;;;3.80;2.23;;;12.80;99.90;;;;;;5036481;28;20644;-85
2022/05/29 09:27:27;;;;;;;4.77;1.80;;;12.80;99.90;;;;;;5059179;28;20201;-85
2022/05/29 09:29:54;;;;;;;3.07;1.67;;;12.80;99.90;;;;;;5056959;28;20178;-85
2022/05/29 09:32:26;;;;;;;4.80;1.73;;;12.80;99.90;;;;;;5057266;28;20686;-85
2022/05/29 09:35:34;;;;;;;5.57;1.80;;;12.80;99.90;;;;;;5055585;28;20174;-85
2022/05/29 09:38:08;;;;;;;2.90;2.07;;;12.80;99.90;;;;;;5054450;28;20193;-85
2022/05/29 09:40:41;;;;;;;4.43;1.80;;;12.90;99.90;;;;;;5057426;28;20166;-85
2022/05/29 09:43:23;;;;;;;3.90;2.40;;;12.90;99.90;;;;;;5059904;28;20193;-84
2022/05/29 09:45:50;;;;;;;4.37;2.43;;;12.90;99.90;;;;;;5059663;28;20244;-85
2022/05/29 09:51:37;;;;;;;1.67;1.57;;;12.70;99.90;;;;;;5061264;28;20188;-86
2022/05/29 09:54:05;;;;;;;3.73;1.90;;;12.80;99.90;;;;;;5053852;28;20189;-86
2022/05/29 09:56:33;;;;;;;3.53;2.13;;;12.80;99.90;;;;;;5059903;28;20197;-86
2022/05/29 09:59:13;;;;;;;4.23;2.13;;;12.90;99.90;;;;;;5060044;28;20181;-86
2022/05/29 10:01:42;;;;;;;3.27;2.13;;;13.00;99.90;;;;;;5060014;28;20209;-86
2022/05/29 10:04:35;;;;;;;5.30;2.17;;;13.20;99.90;;;;;;5059709;28;20251;-86
2022/05/29 10:07:31;;;;;;;3.70;1.80;;;13.40;99.90;;;;;;5060288;28;20552;-86
2022/05/29 10:10:08;;;;;;;3.00;1.30;;;13.40;99.90;;;;;;5050852;28;20267;-86
2022/05/29 10:12:44;;;;;;;5.03;1.30;;;13.40;99.90;;;;;;5059949;28;20701;-86
2022/05/29 10:15:33;;;;;;;3.67;1.63;;;13.30;99.90;;;;;;5060045;28;20184;-86
2022/05/29 10:18:09;;;;;;;1.60;1.33;;;13.40;99.90;;;;;;5059426;28;20303;-86
2022/05/29 10:20:42;;;;;;;6.43;1.10;;;13.40;99.90;;;;;;5060104;28;20170;-86
2022/05/29 10:23:09;;;;;;;3.10;1.23;;;13.50;99.90;;;;;;5062155;28;20196;-86
2022/05/29 10:25:40;;;;;;;2.27;1.07;;;13.60;99.90;;;;;;5076602;28;20181;-88
2022/05/29 10:28:16;;;;;;;2.97;1.00;;;13.80;99.90;;;;;;5060649;28;20178;-86
2022/05/29 10:30:54;;;;;;;2.43;1.20;;;14.50;99.90;;;;;;5076755;28;20173;-87
2022/05/29 10:33:22;;;;;;;2.20;1.13;;;15.00;99.90;;;;;;5059941;28;20219;-86
2022/05/29 10:35:49;;;;;;;7.33;1.13;;;15.40;99.90;;;;;;5058780;28;20189;-87
2022/05/29 10:38:24;;;;;;;2.13;0.90;;;15.70;99.90;;;;;;5059540;28;20596;-86
2022/05/29 10:40:56;;;;;;;1.70;1.17;;;15.80;99.90;;;;;;5058959;28;20174;-86
2022/05/29 10:43:44;;;;;;;1.47;1.10;;;15.90;99.90;;;;;;5060616;28;20182;-86
2022/05/29 10:46:16;;;;;;;4.63;1.53;;;16.30;99.90;;;;;;5077787;28;20233;-86
2022/05/29 10:48:56;;;;;;;2.40;1.50;;;16.10;99.90;;;;;;5060600;28;20205;-86
2022/05/29 10:51:41;;;;;;;4.60;1.40;;;15.40;99.90;;;;;;5060173;28;20185;-86
2022/05/29 10:54:30;;;;;;;4.60;1.40;;;14.60;99.90;;;;;;5078288;28;20177;-85
2022/05/29 10:57:21;;;;;;;3.50;1.60;;;14.00;99.90;;;;;;5060483;28;20197;-86
2022/05/29 11:00:02;;;;;;;3.20;1.60;;;13.50;99.90;;;;;;5064300;28;20197;-85
2022/05/29 11:05:53;;;;;;;3.67;1.47;;;13.10;99.90;;;;;;5066956;28;20192;-89
2022/05/29 11:08:43;;;;;;;2.53;1.20;;;13.10;99.90;;;;;;5064248;28;20170;-85
2022/05/29 11:11:24;;;;;;;3.47;1.60;;;13.20;99.90;;;;;;5058906;28;20180;-86
2022/05/29 11:14:11;;;;;;;2.93;1.27;;;13.30;99.90;;;;;;5059442;28;20173;-87
2022/05/29 11:16:37;;;;;;;2.33;1.20;;;13.50;99.90;;;;;;5059984;28;20215;-86
2022/05/29 11:19:42;;;;;;;3.93;1.20;;;13.70;99.90;;;;;;5060900;28;20197;-86
2022/05/29 11:22:23;;;;;;;2.23;1.30;;;13.80;99.90;;;;;;5059201;28;20177;-86
2022/05/29 11:24:58;;;;;;;1.97;1.40;;;13.80;99.90;;;;;;5060593;28;20264;-86
2022/05/29 11:27:45;;;;;;;6.07;1.40;;;13.70;99.90;;;;;;5074934;28;20181;-86
2022/05/29 11:30:24;;;;;;;1.37;1.27;;;13.60;99.90;;;;;;5057767;28;20184;-86
2022/05/29 11:33:05;;;;;;;2.00;1.30;;;13.50;99.90;;;;;;5057140;28;20237;-86
2022/05/29 11:35:46;;;;;;;1.90;1.20;;;13.00;99.90;;;;;;5056716;28;20169;-87
2022/05/29 11:38:23;;;;;;;4.23;1.10;;;13.00;99.90;;;;;;5059530;28;20189;-86
2022/05/29 11:41:04;;;;;;;1.70;0.87;;;13.00;99.90;;;;;;5061597;28;20520;-85
2022/05/29 11:43:40;;;;;;;1.97;0.97;;;12.90;99.90;;;;;;5061668;28;20189;-85
2022/05/29 11:52:02;;;;;;;1.70;0.90;;;13.20;99.90;;;;;;5061144;28;20196;-86
2022/05/29 11:54:40;;;;;;;1.03;0.83;;;14.50;99.90;;;;;;5058375;28;20173;-86
2022/05/29 11:57:50;;;;;;;4.00;0.97;;;16.00;99.90;;;;;;5056898;28;20197;-86
2022/05/29 12:00:29;;;;;;;2.20;1.10;;;17.70;99.90;;;;;;5059274;28;20194;-86
2022/05/29 12:03:13;;;;;;;1.87;1.00;;;19.50;99.90;;;;;;5060611;28;20165;-86
2022/05/29 12:05:45;;;;;;;1.87;1.10;;;20.30;99.30;;;;;;5062205;28;20181;-86
2022/05/29 12:08:25;;;;;;;1.30;1.20;;;20.20;99.50;;;;;;5061433;28;20170;-85
2022/05/29 12:11:42;;;;;;;3.13;1.27;;;19.60;97.00;;;;;;5060502;28;20178;-85
2022/05/29 12:14:49;;;;;;;3.70;1.33;;;18.70;99.30;;;;;;5038698;28;20195;-86
2022/05/29 12:17:23;;;;;;;1.50;1.00;;;18.10;99.90;;;;;;5040136;28;20201;-86
2022/05/29 12:20:08;;;;;;;1.40;1.17;;;17.90;99.90;;;;;;5053977;28;20202;-86
2022/05/29 12:22:48;;;;;;;2.10;1.10;;;18.00;99.90;;;;;;5061647;28;20257;-86
2022/05/29 12:25:39;;;;;;;1.80;1.10;;;17.70;99.90;;;;;;5061269;28;20175;-86
2022/05/29 12:28:18;;;;;;;1.27;1.17;;;16.90;99.90;;;;;;5061727;28;20180;-86
2022/05/29 12:30:48;;;;;;;2.20;1.13;;;16.00;99.90;;;;;;5061929;28;20266;-86
2022/05/29 12:33:20;;;;;;;1.37;1.27;;;15.20;99.90;;;;;;5062672;28;20210;-85
2022/05/29 12:36:01;;;;;;;2.17;1.20;;;14.40;99.90;;;;;;5059018;28;20179;-86
2022/05/29 12:38:36;;;;;;;1.53;1.17;;;13.60;99.90;;;;;;5058518;28;20189;-85
2022/05/29 12:41:25;;;;;;;6.80;3.87;;;13.00;99.90;;;;;;5074434;28;20207;-85
2022/05/29 12:43:57;;;;;;;2.73;1.70;;;12.50;99.90;;;;;;5057377;28;20185;-85
2022/05/29 12:46:37;;;;;;;3.40;1.90;;;12.30;99.90;;;;;;5058606;28;20197;-85
2022/05/29 12:49:41;;;;;;;1.73;1.20;;;12.00;99.90;;;;;;5059594;28;20272;-85
2022/05/29 12:52:19;;;;;;;2.10;1.20;;;11.80;99.90;;;;;;5040770;28;20254;-84
2022/05/29 12:55:15;;;;;;;3.73;1.50;;;11.70;99.90;;;;;;5059110;28;20268;-84
2022/05/29 12:57:50;;;;;;;4.57;1.90;;;11.50;99.90;;;;;;5060270;28;20659;-83
2022/05/29 13:00:38;;;;;;;4.73;2.03;;;11.10;99.90;;;;;;5061170;28;20212;-83
2022/05/29 13:03:35;;;;;;;3.23;1.57;;;10.60;99.90;;;;;;5059048;28;20177;-84
2022/05/29 13:06:38;;;;;;;4.53;2.03;;;10.10;99.90;;;;;;5061141;28;20219;-84
2022/05/29 13:09:22;;;;;;;5.90;2.20;;;9.90;99.90;;;;;;5076424;28;20181;-84
2022/05/29 13:11:57;;;;;;;6.73;2.13;;;10.00;99.90;;;;;;5060962;28;20201;-84
2022/05/29 13:14:25;;;;;;;4.47;2.27;;;10.00;99.90;;;;;;5059466;28;20177;-84
2022/05/29 13:17:27;;;;;;;5.00;2.37;;;9.80;99.90;;;;;;5061220;28;20197;-84
2022/05/29 13:20:08;;;;;;;5.77;2.53;;;9.70;99.90;;;;;;5052410;28;20189;-84
2022/05/29 13:23:03;;;;;;;3.00;2.30;;;9.70;99.90;;;;;;5061560;28;20181;-84
2022/05/29 13:26:09;;;;;;;3.93;2.10;;;9.50;99.90;;;;;;5060947;28;20173;-84
2022/05/29 13:28:43;;;;;;;4.23;2.10;;;9.50;99.90;;;;;;5046152;28;20285;-84
2022/05/29 13:31:19;;;;;;;4.33;2.37;;;9.40;99.90;;;;;;5062400;28;20184;-84
2022/05/29 13:33:50;;;;;;;3.70;2.60;;;9.30;99.90;;;;;;5064118;28;20173;-84
2022/05/29 13:36:43;;;;;;;5.50;2.87;;;9.10;99.90;;;;;;5063751;28;20261;-84
2022/05/29 13:39:32;;;;;;;4.47;2.67;;;9.10;99.90;;;;;;5066673;28;20162;-85
2022/05/29 13:42:06;;;;;;;3.00;2.47;;;9.00;99.90;;;;;;5064634;28;20239;-85
2022/05/29 13:44:40;;;;;;;6.90;2.27;;;9.00;99.90;;;;;;5064739;28;20179;-85
2022/05/29 13:47:24;;;;;;;3.47;2.23;;;9.00;99.90;;;;;;5062682;28;20247;-85
2022/05/29 13:50:04;;;;;;;3.70;2.40;;;9.10;99.90;;;;;;5063981;28;20178;-84
2022/05/29 13:52:50;;;;;;;3.73;2.60;;;9.20;99.90;;;;;;5063605;28;20205;-84
2022/05/29 13:55:30;;;;;;;2.67;2.40;;;9.40;99.90;;;;;;5061889;28;20201;-85
2022/05/29 14:04:33;;;;;;;3.17;1.80;;;9.60;99.90;;;;;;5061146;28;20208;-83
2022/05/29 14:07:32;;;;;;;3.17;1.93;;;9.70;99.90;;;;;;5060077;28;20200;-85
2022/05/29 14:10:20;;;;;;;2.20;2.00;;;9.90;99.90;;;;;;5059180;28;20177;-85